Terminal Aerodrome Forecast
Issued by NWS

Current Version | Previous Version | Text Only | Print | Product List | Glossary On
Versions: 1 2 3 4 5 6 7 8 9 10 11 12 13 14 15 16 17 18 19 20 21 22 23 24
000
FTUS41 KBOX 171722
TAFMHT
TAF
KMHT 171722Z 1718/1818 08008KT P6SM SCT250
     FM180200 VRB03KT P6SM FEW200
     FM181300 06005KT P6SM BKN250
     FM181700 12007KT P6SM SCT250=

USA.gov is the U.S. government's official web portal to all federal, state and local government web resources and services.